<?xml version="1.0" encoding="UTF-8" standalone="no" ?>
<gpx xmlns="http://www.topografix.com/GPX/1/1" xmlns:xsi="http://www.w3.org/2001/XMLSchema-instance" xsi:schemaLocation="http://www.topografix.com/GPX/1/1 http://www.topografix.com/GPX/1/1/gpx.xsd" version="1.1" creator="VisuGPX - https://www.visugpx.com">
  <metadata>
    <name>Saint Julien le Montagner, lac d'Esparron</name>
    <desc><![CDATA[Bivouac au départ de Saint Julien le Montagner (au pied du village). On longe le lac d'Esparron, puis retour par St Julien.


Si vous partez du même endroit que nous, vous pourrez visiter une grotte, dont l'entrée est plutôt difficile à trouver...
Ensuite, direction le lac d'Esparron pour en suivre le bord pendant un bon moment. Très agréable passage, où on reconnait bien qu'on est dans la région du Verdon.
Nous avons dormi à la plage de Saint Julien. Il n'y avait personne, c'était en hiver.
Le retour est plutôt monotone, même s'il n'est pas désagréable, et la visite de Saint Julien et de ses 2 moulins est à faire.

[b]Lien vers la vidéo de ce bivouac[/b] : [url]https://youtu.be/Kihk14Y7Fnc[/url]

#verdon #esparron #lac #bivouac]]></desc>
  </metadata>
  <trk>
    <name><![CDATA[14371562-st julien, lac d'esparron]]></name>
    <extensions>
      <line xmlns="http://www.topografix.com/GPX/gpx_style/0/2">
        <color>0000FF</color>
        <width>4</width>
      </line>
    </extensions>
    <trkseg>
      <trkpt lat="43.66353" lon="5.91588">
        <ele>476</ele>
        <time>2022-05-14T09:18:17Z</time>
      </trkpt>
      <trkpt lat="43.66828" lon="5.91528">
        <ele>470</ele>
        <time>2022-05-14T09:28:54Z</time>
      </trkpt>
      <trkpt lat="43.66999" lon="5.916">
        <ele>479</ele>
        <time>2022-05-14T09:32:52Z</time>
      </trkpt>
      <trkpt lat="43.67029" lon="5.91922">
        <ele>486</ele>
        <time>2022-05-14T09:38:05Z</time>
      </trkpt>
      <trkpt lat="43.67253" lon="5.91782">
        <ele>481</ele>
        <time>2022-05-14T09:43:33Z</time>
      </trkpt>
      <trkpt lat="43.67451" lon="5.92244">
        <ele>518</ele>
        <time>2022-05-14T09:52:12Z</time>
      </trkpt>
      <trkpt lat="43.67605" lon="5.92493">
        <ele>541</ele>
        <time>2022-05-14T09:57:28Z</time>
      </trkpt>
      <trkpt lat="43.67802" lon="5.92456">
        <ele>538</ele>
        <time>2022-05-14T10:01:53Z</time>
      </trkpt>
      <trkpt lat="43.67811" lon="5.91688">
        <ele>496</ele>
        <time>2022-05-14T10:14:15Z</time>
      </trkpt>
      <trkpt lat="43.68614" lon="5.91427">
        <ele>450</ele>
        <time>2022-05-14T10:32:35Z</time>
      </trkpt>
      <trkpt lat="43.68939" lon="5.91488">
        <ele>447</ele>
        <time>2022-05-14T10:39:53Z</time>
      </trkpt>
      <trkpt lat="43.69448" lon="5.91531">
        <ele>446</ele>
        <time>2022-05-14T10:51:14Z</time>
      </trkpt>
      <trkpt lat="43.69496" lon="5.9184">
        <ele>451</ele>
        <time>2022-05-14T10:56:19Z</time>
      </trkpt>
      <trkpt lat="43.69678" lon="5.92419">
        <ele>460</ele>
        <time>2022-05-14T11:06:28Z</time>
      </trkpt>
      <trkpt lat="43.69748" lon="5.92704">
        <ele>477</ele>
        <time>2022-05-14T11:11:18Z</time>
      </trkpt>
      <trkpt lat="43.69936" lon="5.92903">
        <ele>479</ele>
        <time>2022-05-14T11:16:34Z</time>
      </trkpt>
      <trkpt lat="43.70228" lon="5.92975">
        <ele>492</ele>
        <time>2022-05-14T11:23:10Z</time>
      </trkpt>
      <trkpt lat="43.7043" lon="5.9323">
        <ele>503</ele>
        <time>2022-05-14T11:29:15Z</time>
      </trkpt>
      <trkpt lat="43.70844" lon="5.93383">
        <ele>491</ele>
        <time>2022-05-14T11:38:47Z</time>
      </trkpt>
      <trkpt lat="43.71054" lon="5.9398">
        <ele>511</ele>
        <time>2022-05-14T11:49:27Z</time>
      </trkpt>
      <trkpt lat="43.71142" lon="5.94373">
        <ele>537</ele>
        <time>2022-05-14T11:56:04Z</time>
      </trkpt>
      <trkpt lat="43.71334" lon="5.9473">
        <ele>547</ele>
        <time>2022-05-14T12:03:13Z</time>
      </trkpt>
      <trkpt lat="43.71434" lon="5.94935">
        <ele>534</ele>
        <time>2022-05-14T12:07:12Z</time>
      </trkpt>
      <trkpt lat="43.71622" lon="5.95144">
        <ele>513</ele>
        <time>2022-05-14T12:12:34Z</time>
      </trkpt>
      <trkpt lat="43.7202" lon="5.95552">
        <ele>458</ele>
        <time>2022-05-14T12:23:35Z</time>
      </trkpt>
      <trkpt lat="43.72327" lon="5.95792">
        <ele>416</ele>
        <time>2022-05-14T12:31:25Z</time>
      </trkpt>
      <trkpt lat="43.72511" lon="5.96246">
        <ele>376</ele>
        <time>2022-05-14T12:39:47Z</time>
      </trkpt>
      <trkpt lat="43.72843" lon="5.96267">
        <ele>391</ele>
        <time>2022-05-14T12:47:11Z</time>
      </trkpt>
      <trkpt lat="43.73027" lon="5.96134">
        <ele>407</ele>
        <time>2022-05-14T12:51:48Z</time>
      </trkpt>
      <trkpt lat="43.73252" lon="5.9618">
        <ele>381</ele>
        <time>2022-05-14T12:56:51Z</time>
      </trkpt>
      <trkpt lat="43.73289" lon="5.95935">
        <ele>396</ele>
        <time>2022-05-14T13:00:52Z</time>
      </trkpt>
      <trkpt lat="43.73304" lon="5.95603">
        <ele>403</ele>
        <time>2022-05-14T13:06:13Z</time>
      </trkpt>
      <trkpt lat="43.73256" lon="5.95266">
        <ele>392</ele>
        <time>2022-05-14T13:11:44Z</time>
      </trkpt>
      <trkpt lat="43.73123" lon="5.95103">
        <ele>381</ele>
        <time>2022-05-14T13:15:41Z</time>
      </trkpt>
      <trkpt lat="43.73094" lon="5.94965">
        <ele>385</ele>
        <time>2022-05-14T13:18:00Z</time>
      </trkpt>
      <trkpt lat="43.73308" lon="5.94919">
        <ele>366</ele>
        <time>2022-05-14T13:22:49Z</time>
      </trkpt>
      <trkpt lat="43.73252" lon="5.94771">
        <ele>367</ele>
        <time>2022-05-14T13:25:30Z</time>
      </trkpt>
      <trkpt lat="43.72998" lon="5.94654">
        <ele>373</ele>
        <time>2022-05-14T13:31:27Z</time>
      </trkpt>
      <trkpt lat="43.73234" lon="5.94598">
        <ele>364</ele>
        <time>2022-05-14T13:36:47Z</time>
      </trkpt>
      <trkpt lat="43.73219" lon="5.94383">
        <ele>373</ele>
        <time>2022-05-14T13:40:15Z</time>
      </trkpt>
      <trkpt lat="43.73322" lon="5.94138">
        <ele>370</ele>
        <time>2022-05-14T13:44:49Z</time>
      </trkpt>
      <trkpt lat="43.73241" lon="5.93751">
        <ele>376</ele>
        <time>2022-05-14T13:51:17Z</time>
      </trkpt>
      <trkpt lat="43.73403" lon="5.93817">
        <ele>379</ele>
        <time>2022-05-14T13:55:02Z</time>
      </trkpt>
      <trkpt lat="43.7358" lon="5.93761">
        <ele>385</ele>
        <time>2022-05-14T13:59:05Z</time>
      </trkpt>
      <trkpt lat="43.73451" lon="5.93552">
        <ele>432</ele>
        <time>2022-05-14T14:03:30Z</time>
      </trkpt>
      <trkpt lat="43.73514" lon="5.93352">
        <ele>446</ele>
        <time>2022-05-14T14:07:00Z</time>
      </trkpt>
      <trkpt lat="43.7361" lon="5.93169">
        <ele>459</ele>
        <time>2022-05-14T14:10:38Z</time>
      </trkpt>
      <trkpt lat="43.73739" lon="5.93036">
        <ele>471</ele>
        <time>2022-05-14T14:14:13Z</time>
      </trkpt>
      <trkpt lat="43.73551" lon="5.92709">
        <ele>488</ele>
        <time>2022-05-14T14:20:56Z</time>
      </trkpt>
      <trkpt lat="43.73654" lon="5.92628">
        <ele>486</ele>
        <time>2022-05-14T14:23:34Z</time>
      </trkpt>
      <trkpt lat="43.73558" lon="5.925">
        <ele>494</ele>
        <time>2022-05-14T14:26:32Z</time>
      </trkpt>
      <trkpt lat="43.73461" lon="5.92324">
        <ele>512</ele>
        <time>2022-05-14T14:30:05Z</time>
      </trkpt>
      <trkpt lat="43.73285" lon="5.91982">
        <ele>569</ele>
        <time>2022-05-14T14:36:50Z</time>
      </trkpt>
      <trkpt lat="43.7332" lon="5.91923">
        <ele>574</ele>
        <time>2022-05-14T14:38:04Z</time>
      </trkpt>
      <trkpt lat="43.73379" lon="5.91579">
        <ele>590</ele>
        <time>2022-05-14T14:43:44Z</time>
      </trkpt>
      <trkpt lat="43.73551" lon="5.91097">
        <ele>576</ele>
        <time>2022-05-14T14:52:23Z</time>
      </trkpt>
      <trkpt lat="43.73263" lon="5.90816">
        <ele>549</ele>
        <time>2022-05-14T15:00:13Z</time>
      </trkpt>
      <trkpt lat="43.73035" lon="5.90683">
        <ele>531</ele>
        <time>2022-05-14T15:05:43Z</time>
      </trkpt>
      <trkpt lat="43.72869" lon="5.90852">
        <ele>500</ele>
        <time>2022-05-14T15:10:18Z</time>
      </trkpt>
      <trkpt lat="43.72588" lon="5.90867">
        <ele>483</ele>
        <time>2022-05-14T15:16:34Z</time>
      </trkpt>
      <trkpt lat="43.72238" lon="5.9025">
        <ele>436</ele>
        <time>2022-05-14T15:29:10Z</time>
      </trkpt>
      <trkpt lat="43.71991" lon="5.90295">
        <ele>412</ele>
        <time>2022-05-14T15:34:42Z</time>
      </trkpt>
      <trkpt lat="43.71755" lon="5.90321">
        <ele>408</ele>
        <time>2022-05-14T15:39:58Z</time>
      </trkpt>
      <trkpt lat="43.7157" lon="5.90081">
        <ele>416</ele>
        <time>2022-05-14T15:45:37Z</time>
      </trkpt>
      <trkpt lat="43.71541" lon="5.89857">
        <ele>403</ele>
        <time>2022-05-14T15:49:16Z</time>
      </trkpt>
      <trkpt lat="43.71404" lon="5.89859">
        <ele>409</ele>
        <time>2022-05-14T15:52:19Z</time>
      </trkpt>
      <trkpt lat="43.71199" lon="5.90025">
        <ele>428</ele>
        <time>2022-05-14T15:57:36Z</time>
      </trkpt>
      <trkpt lat="43.70922" lon="5.90207">
        <ele>467</ele>
        <time>2022-05-14T16:04:25Z</time>
      </trkpt>
      <trkpt lat="43.70795" lon="5.90286">
        <ele>485</ele>
        <time>2022-05-14T16:07:31Z</time>
      </trkpt>
      <trkpt lat="43.7069" lon="5.90396">
        <ele>485</ele>
        <time>2022-05-14T16:10:27Z</time>
      </trkpt>
      <trkpt lat="43.70319" lon="5.90421">
        <ele>447</ele>
        <time>2022-05-14T16:18:43Z</time>
      </trkpt>
      <trkpt lat="43.70165" lon="5.90136">
        <ele>433</ele>
        <time>2022-05-14T16:24:26Z</time>
      </trkpt>
      <trkpt lat="43.69662" lon="5.89873">
        <ele>450</ele>
        <time>2022-05-14T16:36:23Z</time>
      </trkpt>
      <trkpt lat="43.69354" lon="5.8997">
        <ele>475</ele>
        <time>2022-05-14T16:43:25Z</time>
      </trkpt>
      <trkpt lat="43.69231" lon="5.90132">
        <ele>498</ele>
        <time>2022-05-14T16:47:12Z</time>
      </trkpt>
      <trkpt lat="43.69144" lon="5.90317">
        <ele>515</ele>
        <time>2022-05-14T16:50:45Z</time>
      </trkpt>
      <trkpt lat="43.6908" lon="5.90387">
        <ele>517</ele>
        <time>2022-05-14T16:52:33Z</time>
      </trkpt>
      <trkpt lat="43.68718" lon="5.90852">
        <ele>516</ele>
        <time>2022-05-14T17:03:33Z</time>
      </trkpt>
      <trkpt lat="43.68253" lon="5.90852">
        <ele>491</ele>
        <time>2022-05-14T17:13:53Z</time>
      </trkpt>
      <trkpt lat="43.67825" lon="5.9152">
        <ele>491</ele>
        <time>2022-05-14T17:28:15Z</time>
      </trkpt>
      <trkpt lat="43.67312" lon="5.91704">
        <ele>480</ele>
        <time>2022-05-14T17:40:02Z</time>
      </trkpt>
      <trkpt lat="43.66496" lon="5.91638">
        <ele>472</ele>
        <time>2022-05-14T17:58:13Z</time>
      </trkpt>
    </trkseg>
  </trk>
</gpx>